sensor_id;sensor_type;location;lat;lon;timestamp;P1;durP1;ratioP1;P2;durP2;ratioP2
69953;SDS011;57276;51.364;12.376;2022-08-11T00:04:03;5.05;;;3.35;;
69953;SDS011;57276;51.364;12.376;2022-08-11T00:10:08;7.83;;;3.43;;
69953;SDS011;57276;51.364;12.376;2022-08-11T00:16:16;5.60;;;3.30;;
69953;SDS011;57276;51.364;12.376;2022-08-11T00:22:20;8.60;;;3.25;;
69953;SDS011;57276;51.364;12.376;2022-08-11T00:34:29;5.50;;;3.75;;
69953;SDS011;57276;51.364;12.376;2022-08-11T00:40:41;6.93;;;3.67;;
69953;SDS011;57276;51.364;12.376;2022-08-11T00:46:59;7.13;;;3.30;;
69953;SDS011;57276;51.364;12.376;2022-08-11T01:11:52;6.23;;;4.27;;
69953;SDS011;57276;51.364;12.376;2022-08-11T01:24:24;6.40;;;3.83;;
69953;SDS011;57276;51.364;12.376;2022-08-11T01:30:42;5.97;;;3.63;;
69953;SDS011;57276;51.364;12.376;2022-08-11T01:43:17;5.83;;;4.13;;
69953;SDS011;57276;51.364;12.376;2022-08-11T01:49:54;6.10;;;4.40;;
69953;SDS011;57276;51.364;12.376;2022-08-11T01:56:32;6.93;;;4.07;;
69953;SDS011;57276;51.364;12.376;2022-08-11T02:02:45;7.43;;;4.20;;
69953;SDS011;57276;51.364;12.376;2022-08-11T02:08:53;7.35;;;4.55;;
69953;SDS011;57276;51.364;12.376;2022-08-11T02:15:07;10.30;;;4.37;;
69953;SDS011;57276;51.364;12.376;2022-08-11T02:21:09;9.23;;;5.20;;
69953;SDS011;57276;51.364;12.376;2022-08-11T02:27:40;8.90;;;4.65;;
69953;SDS011;57276;51.364;12.376;2022-08-11T02:33:43;8.13;;;4.83;;
69953;SDS011;57276;51.364;12.376;2022-08-11T02:39:53;7.13;;;4.78;;
69953;SDS011;57276;51.364;12.376;2022-08-11T02:52:22;7.43;;;5.15;;
69953;SDS011;57276;51.364;12.376;2022-08-11T02:58:48;8.35;;;5.10;;
69953;SDS011;57276;51.364;12.376;2022-08-11T03:11:16;11.65;;;6.00;;
69953;SDS011;57276;51.364;12.376;2022-08-11T03:23:46;9.48;;;5.40;;
69953;SDS011;57276;51.364;12.376;2022-08-11T03:30:00;13.20;;;9.23;;
69953;SDS011;57276;51.364;12.376;2022-08-11T03:37:05;11.10;;;6.20;;
69953;SDS011;57276;51.364;12.376;2022-08-11T03:42:57;8.38;;;5.32;;
69953;SDS011;57276;51.364;12.376;2022-08-11T04:14:11;11.77;;;5.78;;
69953;SDS011;57276;51.364;12.376;2022-08-11T04:20:57;10.77;;;5.87;;
69953;SDS011;57276;51.364;12.376;2022-08-11T04:45:34;11.95;;;5.65;;
69953;SDS011;57276;51.364;12.376;2022-08-11T04:58:20;10.20;;;6.15;;
69953;SDS011;57276;51.364;12.376;2022-08-11T05:11:30;7.50;;;5.70;;
69953;SDS011;57276;51.364;12.376;2022-08-11T05:17:37;9.98;;;6.40;;
69953;SDS011;57276;51.364;12.376;2022-08-11T05:24:10;10.13;;;6.27;;
69953;SDS011;57276;51.364;12.376;2022-08-11T05:30:32;9.85;;;5.43;;
69953;SDS011;57276;51.364;12.376;2022-08-11T05:37:09;10.35;;;6.18;;
69953;SDS011;57276;51.364;12.376;2022-08-11T05:43:27;10.50;;;6.10;;
69953;SDS011;57276;51.364;12.376;2022-08-11T05:50:11;11.85;;;6.18;;
69953;SDS011;57276;51.364;12.376;2022-08-11T05:56:34;8.93;;;5.90;;
69953;SDS011;57276;51.364;12.376;2022-08-11T06:02:42;10.40;;;5.90;;
69953;SDS011;57276;51.364;12.376;2022-08-11T06:08:44;7.93;;;5.43;;
69953;SDS011;57276;51.364;12.376;2022-08-11T06:14:46;13.47;;;6.60;;
69953;SDS011;57276;51.364;12.376;2022-08-11T06:20:51;11.27;;;6.20;;
69953;SDS011;57276;51.364;12.376;2022-08-11T06:26:52;10.90;;;6.50;;
69953;SDS011;57276;51.364;12.376;2022-08-11T06:33:16;10.95;;;6.30;;
69953;SDS011;57276;51.364;12.376;2022-08-11T06:39:26;13.93;;;6.30;;
69953;SDS011;57276;51.364;12.376;2022-08-11T06:45:37;10.87;;;6.40;;
69953;SDS011;57276;51.364;12.376;2022-08-11T06:51:42;9.60;;;6.30;;
69953;SDS011;57276;51.364;12.376;2022-08-11T06:57:50;9.53;;;5.50;;
69953;SDS011;57276;51.364;12.376;2022-08-11T07:04:15;9.73;;;5.20;;
69953;SDS011;57276;51.364;12.376;2022-08-11T07:10:24;10.40;;;5.60;;
69953;SDS011;57276;51.364;12.376;2022-08-11T07:16:47;12.47;;;6.00;;
69953;SDS011;57276;51.364;12.376;2022-08-11T07:22:58;9.27;;;5.10;;
69953;SDS011;57276;51.364;12.376;2022-08-11T07:29:19;8.67;;;4.60;;
69953;SDS011;57276;51.364;12.376;2022-08-11T07:35:35;12.60;;;6.63;;
69953;SDS011;57276;51.364;12.376;2022-08-11T07:41:38;9.25;;;4.80;;
69953;SDS011;57276;51.364;12.376;2022-08-11T07:47:40;9.20;;;5.40;;
69953;SDS011;57276;51.364;12.376;2022-08-11T07:54:01;11.50;;;7.07;;
69953;SDS011;57276;51.364;12.376;2022-08-11T08:00:17;8.30;;;4.60;;
69953;SDS011;57276;51.364;12.376;2022-08-11T08:06:38;14.35;;;4.50;;
69953;SDS011;57276;51.364;12.376;2022-08-11T08:12:59;6.50;;;3.90;;
69953;SDS011;57276;51.364;12.376;2022-08-11T08:19:19;8.17;;;4.67;;
69953;SDS011;57276;51.364;12.376;2022-08-11T08:25:28;8.52;;;4.35;;
69953;SDS011;57276;51.364;12.376;2022-08-11T08:31:30;5.17;;;3.60;;
69953;SDS011;57276;51.364;12.376;2022-08-11T08:37:32;7.20;;;3.78;;
69953;SDS011;57276;51.364;12.376;2022-08-11T08:43:47;8.68;;;4.63;;
69953;SDS011;57276;51.364;12.376;2022-08-11T08:49:50;6.07;;;3.60;;
69953;SDS011;57276;51.364;12.376;2022-08-11T08:55:54;7.10;;;4.10;;
69953;SDS011;57276;51.364;12.376;2022-08-11T09:01:58;7.47;;;3.43;;
69953;SDS011;57276;51.364;12.376;2022-08-11T09:08:00;11.52;;;8.65;;
69953;SDS011;57276;51.364;12.376;2022-08-11T09:14:03;7.03;;;3.70;;
69953;SDS011;57276;51.364;12.376;2022-08-11T09:20:11;8.63;;;3.70;;
69953;SDS011;57276;51.364;12.376;2022-08-11T09:26:13;7.43;;;3.33;;
69953;SDS011;57276;51.364;12.376;2022-08-11T09:32:34;6.80;;;3.43;;
69953;SDS011;57276;51.364;12.376;2022-08-11T09:38:36;5.78;;;3.17;;
69953;SDS011;57276;51.364;12.376;2022-08-11T09:44:56;6.22;;;3.10;;
69953;SDS011;57276;51.364;12.376;2022-08-11T09:50:58;6.43;;;3.43;;
69953;SDS011;57276;51.364;12.376;2022-08-11T09:57:00;4.82;;;3.33;;
69953;SDS011;57276;51.364;12.376;2022-08-11T10:03:21;8.77;;;3.30;;
69953;SDS011;57276;51.364;12.376;2022-08-11T10:09:23;6.15;;;3.30;;
69953;SDS011;57276;51.364;12.376;2022-08-11T10:15:25;7.22;;;4.00;;
69953;SDS011;57276;51.364;12.376;2022-08-11T10:21:42;5.43;;;3.50;;
69953;SDS011;57276;51.364;12.376;2022-08-11T10:27:45;7.57;;;3.30;;
69953;SDS011;57276;51.364;12.376;2022-08-11T10:34:07;4.83;;;3.03;;
69953;SDS011;57276;51.364;12.376;2022-08-11T10:40:16;6.15;;;3.20;;
69953;SDS011;57276;51.364;12.376;2022-08-11T10:46:18;5.82;;;3.60;;
69953;SDS011;57276;51.364;12.376;2022-08-11T10:52:38;9.27;;;3.80;;
69953;SDS011;57276;51.364;12.376;2022-08-11T10:58:58;5.28;;;3.25;;
69953;SDS011;57276;51.364;12.376;2022-08-11T11:11:09;6.00;;;3.20;;
69953;SDS011;57276;51.364;12.376;2022-08-11T11:17:21;5.32;;;3.40;;
69953;SDS011;57276;51.364;12.376;2022-08-11T11:23:42;5.33;;;3.50;;
69953;SDS011;57276;51.364;12.376;2022-08-11T11:30:04;4.95;;;3.30;;
69953;SDS011;57276;51.364;12.376;2022-08-11T11:36:23;6.90;;;3.43;;
69953;SDS011;57276;51.364;12.376;2022-08-11T11:42:28;5.85;;;3.33;;
69953;SDS011;57276;51.364;12.376;2022-08-11T11:48:31;6.60;;;3.33;;
69953;SDS011;57276;51.364;12.376;2022-08-11T11:54:34;5.13;;;3.37;;
69953;SDS011;57276;51.364;12.376;2022-08-11T12:00:37;6.97;;;3.20;;
69953;SDS011;57276;51.364;12.376;2022-08-11T12:06:57;6.05;;;3.25;;
69953;SDS011;57276;51.364;12.376;2022-08-11T12:13:19;4.83;;;3.50;;
69953;SDS011;57276;51.364;12.376;2022-08-11T12:19:39;6.35;;;3.60;;
69953;SDS011;57276;51.364;12.376;2022-08-11T12:25:48;6.05;;;3.28;;
69953;SDS011;57276;51.364;12.376;2022-08-11T12:32:28;5.47;;;3.90;;
69953;SDS011;57276;51.364;12.376;2022-08-11T12:38:30;8.50;;;3.70;;
69953;SDS011;57276;51.364;12.376;2022-08-11T12:44:33;12.33;;;4.40;;
69953;SDS011;57276;51.364;12.376;2022-08-11T12:50:55;11.68;;;4.63;;
69953;SDS011;57276;51.364;12.376;2022-08-11T12:57:24;7.22;;;5.03;;
69953;SDS011;57276;51.364;12.376;2022-08-11T13:03:45;7.90;;;4.90;;
69953;SDS011;57276;51.364;12.376;2022-08-11T13:10:06;12.63;;;4.80;;
69953;SDS011;57276;51.364;12.376;2022-08-11T13:16:17;11.10;;;5.72;;
69953;SDS011;57276;51.364;12.376;2022-08-11T13:22:21;7.13;;;5.82;;
69953;SDS011;57276;51.364;12.376;2022-08-11T13:28:23;12.27;;;4.93;;
69953;SDS011;57276;51.364;12.376;2022-08-11T13:34:25;9.68;;;5.20;;
69953;SDS011;57276;51.364;12.376;2022-08-11T13:40:28;6.85;;;6.25;;
69953;SDS011;57276;51.364;12.376;2022-08-11T13:46:49;7.90;;;6.67;;
69953;SDS011;57276;51.364;12.376;2022-08-11T13:52:53;7.43;;;6.70;;
69953;SDS011;57276;51.364;12.376;2022-08-11T13:58:55;8.57;;;7.75;;
69953;SDS011;57276;51.364;12.376;2022-08-11T14:05:00;8.27;;;7.07;;
69953;SDS011;57276;51.364;12.376;2022-08-11T14:11:03;7.60;;;6.43;;
69953;SDS011;57276;51.364;12.376;2022-08-11T14:17:53;7.07;;;6.38;;
69953;SDS011;57276;51.364;12.376;2022-08-11T14:23:57;8.20;;;7.18;;
69953;SDS011;57276;51.364;12.376;2022-08-11T14:30:02;7.80;;;6.20;;
69953;SDS011;57276;51.364;12.376;2022-08-11T14:36:05;7.15;;;6.32;;
69953;SDS011;57276;51.364;12.376;2022-08-11T14:42:07;8.40;;;6.85;;
69953;SDS011;57276;51.364;12.376;2022-08-11T14:48:28;11.90;;;8.10;;
69953;SDS011;57276;51.364;12.376;2022-08-11T14:54:30;10.60;;;7.00;;
69953;SDS011;57276;51.364;12.376;2022-08-11T15:00:54;10.45;;;8.90;;
69953;SDS011;57276;51.364;12.376;2022-08-11T15:06:57;10.03;;;7.00;;
69953;SDS011;57276;51.364;12.376;2022-08-11T15:12:59;7.53;;;6.47;;
69953;SDS011;57276;51.364;12.376;2022-08-11T15:19:01;7.07;;;6.38;;
69953;SDS011;57276;51.364;12.376;2022-08-11T15:25:02;6.07;;;5.50;;
69953;SDS011;57276;51.364;12.376;2022-08-11T15:31:04;8.10;;;5.87;;
69953;SDS011;57276;51.364;12.376;2022-08-11T15:37:24;7.88;;;6.32;;
69953;SDS011;57276;51.364;12.376;2022-08-11T15:43:28;7.28;;;6.43;;
69953;SDS011;57276;51.364;12.376;2022-08-11T15:49:50;7.63;;;6.03;;
69953;SDS011;57276;51.364;12.376;2022-08-11T15:56:13;7.38;;;4.50;;
69953;SDS011;57276;51.364;12.376;2022-08-11T16:02:16;7.97;;;5.03;;
69953;SDS011;57276;51.364;12.376;2022-08-11T16:08:28;6.43;;;4.40;;
69953;SDS011;57276;51.364;12.376;2022-08-11T16:14:35;6.18;;;4.07;;
69953;SDS011;57276;51.364;12.376;2022-08-11T16:28:43;6.43;;;3.77;;
69953;SDS011;57276;51.364;12.376;2022-08-11T16:34:48;4.72;;;3.65;;
69953;SDS011;57276;51.364;12.376;2022-08-11T16:41:09;6.38;;;4.00;;
69953;SDS011;57276;51.364;12.376;2022-08-11T16:47:12;7.93;;;3.80;;
69953;SDS011;57276;51.364;12.376;2022-08-11T16:53:16;5.18;;;3.30;;
69953;SDS011;57276;51.364;12.376;2022-08-11T16:59:23;5.87;;;3.70;;
69953;SDS011;57276;51.364;12.376;2022-08-11T17:05:26;8.07;;;4.30;;
69953;SDS011;57276;51.364;12.376;2022-08-11T17:11:55;6.20;;;4.20;;
69953;SDS011;57276;51.364;12.376;2022-08-11T17:18:17;8.83;;;3.20;;
69953;SDS011;57276;51.364;12.376;2022-08-11T17:24:40;6.07;;;3.22;;
69953;SDS011;57276;51.364;12.376;2022-08-11T17:30:43;4.63;;;3.33;;
69953;SDS011;57276;51.364;12.376;2022-08-11T17:37:18;8.80;;;3.28;;
69953;SDS011;57276;51.364;12.376;2022-08-11T17:43:21;4.80;;;2.80;;
69953;SDS011;57276;51.364;12.376;2022-08-11T17:49:41;4.83;;;2.50;;
69953;SDS011;57276;51.364;12.376;2022-08-11T17:55:43;4.88;;;2.70;;
69953;SDS011;57276;51.364;12.376;2022-08-11T18:02:04;5.13;;;2.53;;
69953;SDS011;57276;51.364;12.376;2022-08-11T18:08:36;4.50;;;2.40;;
69953;SDS011;57276;51.364;12.376;2022-08-11T18:14:57;5.18;;;2.60;;
69953;SDS011;57276;51.364;12.376;2022-08-11T18:21:19;5.13;;;2.37;;
69953;SDS011;57276;51.364;12.376;2022-08-11T18:27:41;3.95;;;2.40;;
69953;SDS011;57276;51.364;12.376;2022-08-11T18:34:03;5.10;;;2.60;;
69953;SDS011;57276;51.364;12.376;2022-08-11T18:40:25;5.45;;;2.50;;
69953;SDS011;57276;51.364;12.376;2022-08-11T18:46:46;5.00;;;2.60;;
69953;SDS011;57276;51.364;12.376;2022-08-11T18:53:09;6.90;;;3.50;;
69953;SDS011;57276;51.364;12.376;2022-08-11T18:59:31;5.60;;;3.30;;
69953;SDS011;57276;51.364;12.376;2022-08-11T19:05:54;6.20;;;2.80;;
69953;SDS011;57276;51.364;12.376;2022-08-11T19:12:37;6.15;;;2.30;;
69953;SDS011;57276;51.364;12.376;2022-08-11T19:18:59;4.95;;;2.85;;
69953;SDS011;57276;51.364;12.376;2022-08-11T19:25:20;6.80;;;2.40;;
69953;SDS011;57276;51.364;12.376;2022-08-11T19:31:41;5.25;;;2.20;;
69953;SDS011;57276;51.364;12.376;2022-08-11T19:38:02;4.83;;;2.90;;
69953;SDS011;57276;51.364;12.376;2022-08-11T19:44:23;5.25;;;2.97;;
69953;SDS011;57276;51.364;12.376;2022-08-11T19:50:44;5.15;;;2.40;;
69953;SDS011;57276;51.364;12.376;2022-08-11T19:57:04;4.60;;;2.60;;
69953;SDS011;57276;51.364;12.376;2022-08-11T20:03:25;6.85;;;2.67;;
69953;SDS011;57276;51.364;12.376;2022-08-11T20:09:45;5.03;;;2.97;;
69953;SDS011;57276;51.364;12.376;2022-08-11T20:16:07;4.97;;;2.50;;
69953;SDS011;57276;51.364;12.376;2022-08-11T20:22:29;5.13;;;2.80;;
69953;SDS011;57276;51.364;12.376;2022-08-11T20:28:49;6.20;;;2.40;;
69953;SDS011;57276;51.364;12.376;2022-08-11T20:35:10;6.95;;;3.72;;
69953;SDS011;57276;51.364;12.376;2022-08-11T20:41:30;6.27;;;2.90;;
69953;SDS011;57276;51.364;12.376;2022-08-11T20:47:59;6.13;;;2.90;;
69953;SDS011;57276;51.364;12.376;2022-08-11T20:54:23;5.00;;;2.83;;
69953;SDS011;57276;51.364;12.376;2022-08-11T21:00:45;5.17;;;2.40;;
69953;SDS011;57276;51.364;12.376;2022-08-11T21:07:16;5.35;;;2.20;;
69953;SDS011;57276;51.364;12.376;2022-08-11T21:13:39;5.00;;;2.27;;
69953;SDS011;57276;51.364;12.376;2022-08-11T21:20:03;4.45;;;2.10;;
69953;SDS011;57276;51.364;12.376;2022-08-11T21:26:27;5.07;;;2.70;;
69953;SDS011;57276;51.364;12.376;2022-08-11T21:32:52;5.23;;;2.30;;
69953;SDS011;57276;51.364;12.376;2022-08-11T21:39:12;4.88;;;2.50;;
69953;SDS011;57276;51.364;12.376;2022-08-11T21:45:36;5.33;;;2.20;;
69953;SDS011;57276;51.364;12.376;2022-08-11T21:51:56;9.15;;;2.65;;
69953;SDS011;57276;51.364;12.376;2022-08-11T21:58:16;5.75;;;2.10;;
69953;SDS011;57276;51.364;12.376;2022-08-11T22:04:37;4.43;;;2.37;;
69953;SDS011;57276;51.364;12.376;2022-08-11T22:10:58;5.00;;;2.67;;
69953;SDS011;57276;51.364;12.376;2022-08-11T22:17:33;6.03;;;2.50;;
69953;SDS011;57276;51.364;12.376;2022-08-11T22:23:58;5.72;;;2.25;;
69953;SDS011;57276;51.364;12.376;2022-08-11T22:30:30;7.35;;;3.35;;
69953;SDS011;57276;51.364;12.376;2022-08-11T22:36:51;6.30;;;3.10;;
69953;SDS011;57276;51.364;12.376;2022-08-11T22:43:27;12.80;;;3.35;;
69953;SDS011;57276;51.364;12.376;2022-08-11T22:49:50;4.50;;;2.40;;
69953;SDS011;57276;51.364;12.376;2022-08-11T22:56:11;4.60;;;2.63;;
69953;SDS011;57276;51.364;12.376;2022-08-11T23:02:33;7.20;;;2.67;;
69953;SDS011;57276;51.364;12.376;2022-08-11T23:08:54;5.47;;;2.60;;
69953;SDS011;57276;51.364;12.376;2022-08-11T23:15:14;6.18;;;2.78;;
69953;SDS011;57276;51.364;12.376;2022-08-11T23:21:37;7.00;;;2.60;;
69953;SDS011;57276;51.364;12.376;2022-08-11T23:27:58;7.30;;;2.58;;
69953;SDS011;57276;51.364;12.376;2022-08-11T23:34:20;4.78;;;2.40;;
69953;SDS011;57276;51.364;12.376;2022-08-11T23:41:02;5.13;;;2.40;;
69953;SDS011;57276;51.364;12.376;2022-08-11T23:47:22;4.95;;;2.85;;
69953;SDS011;57276;51.364;12.376;2022-08-11T23:53:51;5.50;;;2.50;;
